Time;durP1;ratioP1;P1;durP2;ratioP2;P2;SDS_P1;SDS_P2;PMS_P1;PMS_P2;Temp;Humidity;BMP_temperature;BMP_pressure;BME280_temperature;BME280_humidity;BME280_pressure;Samples;Min_cycle;Max_cycle;Signal;HPM_P1;HPM_P2
2022/07/01 00:01:37;;;;;;;4.33;3.33;;;;;;;;;;4905967;29;20618;-76
2022/07/01 00:04:04;;;;;;;4.03;3.30;;;;;;;;;;4903635;29;20685;-74
2022/07/01 00:06:31;;;;;;;5.57;3.20;;;;;;;;;;4909851;29;20230;-76
2022/07/01 00:08:58;;;;;;;5.37;3.50;;;;;;;;;;4903623;29;20216;-76
2022/07/01 00:11:27;;;;;;;3.70;2.97;;;;;;;;;;4906072;29;20208;-74
2022/07/01 00:13:54;;;;;;;3.70;2.93;;;;;;;;;;4903899;29;20252;-75
2022/07/01 00:16:21;;;;;;;5.80;3.53;;;;;;;;;;4910141;29;20215;-75
2022/07/01 00:18:48;;;;;;;5.20;3.80;;;;;;;;;;4902142;29;20216;-75
2022/07/01 00:21:15;;;;;;;4.43;3.60;;;;;;;;;;4908548;29;20218;-75
2022/07/01 00:23:43;;;;;;;4.13;3.63;;;;;;;;;;4907693;29;20276;-74
2022/07/01 00:26:10;;;;;;;5.13;3.63;;;;;;;;;;4904286;29;20297;-74
2022/07/01 00:28:39;;;;;;;5.17;3.87;;;;;;;;;;4906349;29;20217;-75
2022/07/01 00:31:06;;;;;;;5.77;3.70;;;;;;;;;;4906191;29;20204;-75
2022/07/01 00:33:33;;;;;;;4.60;3.10;;;;;;;;;;4904369;29;20207;-75
2022/07/01 00:36:00;;;;;;;4.10;2.83;;;;;;;;;;4903090;29;20212;-76
2022/07/01 00:38:27;;;;;;;3.93;2.80;;;;;;;;;;4908819;29;20212;-75
2022/07/01 00:40:55;;;;;;;4.07;2.80;;;;;;;;;;4905579;29;20213;-75
2022/07/01 00:43:23;;;;;;;5.50;2.80;;;;;;;;;;4909658;29;20303;-75
2022/07/01 00:45:51;;;;;;;5.57;2.83;;;;;;;;;;4909154;29;20242;-75
2022/07/01 00:48:19;;;;;;;4.67;3.00;;;;;;;;;;4906383;29;20573;-75
2022/07/01 00:50:47;;;;;;;5.53;2.80;;;;;;;;;;4907668;29;20208;-75
2022/07/01 00:53:14;;;;;;;3.80;2.90;;;;;;;;;;4912026;29;20565;-75
2022/07/01 00:55:42;;;;;;;7.40;3.83;;;;;;;;;;4911293;29;20235;-75
2022/07/01 00:58:09;;;;;;;4.63;3.33;;;;;;;;;;4907899;29;20204;-75
2022/07/01 01:00:38;;;;;;;5.13;3.43;;;;;;;;;;4910566;29;20210;-75
2022/07/01 01:03:10;;;;;;;5.60;3.83;;;;;;;;;;4907295;29;20295;-76
2022/07/01 01:05:37;;;;;;;4.30;3.20;;;;;;;;;;4910036;29;20219;-75
2022/07/01 01:08:04;;;;;;;6.90;3.50;;;;;;;;;;4906898;29;20215;-75
2022/07/01 01:10:32;;;;;;;6.07;3.57;;;;;;;;;;4911444;29;20203;-75
2022/07/01 01:12:59;;;;;;;6.47;4.13;;;;;;;;;;4908762;29;20239;-75
2022/07/01 01:15:27;;;;;;;5.47;3.80;;;;;;;;;;4910796;29;20809;-75
2022/07/01 01:17:55;;;;;;;6.63;4.20;;;;;;;;;;4907215;29;20216;-76
2022/07/01 01:20:23;;;;;;;4.87;3.67;;;;;;;;;;4905922;29;20214;-76
2022/07/01 01:22:52;;;;;;;4.60;3.40;;;;;;;;;;4907432;29;20304;-75
2022/07/01 01:25:19;;;;;;;7.00;3.63;;;;;;;;;;4908270;29;22169;-76
2022/07/01 01:27:46;;;;;;;5.10;3.93;;;;;;;;;;4912811;29;20208;-76
2022/07/01 01:30:14;;;;;;;5.93;3.67;;;;;;;;;;4908486;29;20218;-76
2022/07/01 01:32:41;;;;;;;7.30;4.00;;;;;;;;;;4912809;29;20203;-75
2022/07/01 01:35:09;;;;;;;8.33;3.30;;;;;;;;;;4907321;29;20228;-75
2022/07/01 01:37:36;;;;;;;5.27;3.70;;;;;;;;;;4910227;29;20290;-75
2022/07/01 01:40:05;;;;;;;6.87;3.57;;;;;;;;;;4906103;29;20204;-75
2022/07/01 01:42:32;;;;;;;5.23;3.53;;;;;;;;;;4910079;29;20204;-76
2022/07/01 01:44:59;;;;;;;4.57;3.17;;;;;;;;;;4907033;29;20316;-75
2022/07/01 01:47:26;;;;;;;4.17;3.00;;;;;;;;;;4908282;29;20214;-76
2022/07/01 01:49:53;;;;;;;3.70;2.20;;;;;;;;;;4900911;29;20208;-76
2022/07/01 01:52:20;;;;;;;3.60;2.00;;;;;;;;;;4908631;29;20206;-75
2022/07/01 01:54:48;;;;;;;7.03;2.10;;;;;;;;;;4907880;29;20237;-74
2022/07/01 01:57:16;;;;;;;4.37;2.10;;;;;;;;;;4909912;29;20469;-76
2022/07/01 01:59:43;;;;;;;4.33;2.10;;;;;;;;;;4907714;29;20583;-75
2022/07/01 02:02:10;;;;;;;5.17;2.47;;;;;;;;;;4909825;29;20212;-76
2022/07/01 02:04:38;;;;;;;4.07;2.17;;;;;;;;;;4906562;29;20219;-76
2022/07/01 02:07:05;;;;;;;3.13;2.27;;;;;;;;;;4904980;29;20242;-76
2022/07/01 02:09:32;;;;;;;3.10;2.20;;;;;;;;;;4908040;29;20785;-77
2022/07/01 02:12:00;;;;;;;4.07;2.33;;;;;;;;;;4907410;29;20215;-74
2022/07/01 02:14:28;;;;;;;2.40;1.90;;;;;;;;;;4909543;29;20330;-76
2022/07/01 02:16:55;;;;;;;2.90;2.13;;;;;;;;;;4911646;29;20592;-76
2022/07/01 02:19:22;;;;;;;2.27;1.63;;;;;;;;;;4912462;29;20306;-76
2022/07/01 02:21:52;;;;;;;2.73;1.93;;;;;;;;;;4905651;29;20208;-76
2022/07/01 02:24:19;;;;;;;4.53;2.27;;;;;;;;;;4905638;29;20790;-76
2022/07/01 02:26:46;;;;;;;4.13;2.00;;;;;;;;;;4907166;29;20238;-75
2022/07/01 02:29:13;;;;;;;3.03;2.30;;;;;;;;;;4907468;29;20759;-77
2022/07/01 02:31:42;;;;;;;2.80;2.43;;;;;;;;;;4908494;29;20263;-76
2022/07/01 02:34:09;;;;;;;6.80;2.37;;;;;;;;;;4908829;29;20314;-76
2022/07/01 02:36:36;;;;;;;3.33;2.37;;;;;;;;;;4909598;29;20204;-77
2022/07/01 02:39:03;;;;;;;3.57;2.30;;;;;;;;;;4908550;29;20734;-77
2022/07/01 02:41:31;;;;;;;2.97;2.50;;;;;;;;;;4911792;29;20221;-76
2022/07/01 02:43:58;;;;;;;3.33;2.40;;;;;;;;;;4904577;29;20252;-76
2022/07/01 02:46:25;;;;;;;4.10;2.67;;;;;;;;;;4908220;29;20207;-76
2022/07/01 02:48:54;;;;;;;2.57;2.20;;;;;;;;;;4908832;29;20212;-76
2022/07/01 02:51:21;;;;;;;3.27;2.03;;;;;;;;;;4909774;29;20255;-75
2022/07/01 02:53:48;;;;;;;4.27;2.37;;;;;;;;;;4906056;29;20215;-76
2022/07/01 02:56:15;;;;;;;2.90;2.10;;;;;;;;;;4906753;29;20327;-76
2022/07/01 02:58:42;;;;;;;2.63;2.20;;;;;;;;;;4907056;29;20299;-76
2022/07/01 03:01:09;;;;;;;3.77;1.87;;;;;;;;;;4908057;29;20484;-76
2022/07/01 03:03:36;;;;;;;3.07;1.80;;;;;;;;;;4907900;29;20227;-77
2022/07/01 03:06:05;;;;;;;2.00;1.57;;;;;;;;;;4903379;29;20215;-75
2022/07/01 03:08:32;;;;;;;2.63;2.03;;;;;;;;;;4909163;29;20231;-77
2022/07/01 03:10:59;;;;;;;2.07;1.73;;;;;;;;;;4905533;29;20242;-76
2022/07/01 03:13:26;;;;;;;2.10;1.60;;;;;;;;;;4907131;29;20283;-76
2022/07/01 03:15:54;;;;;;;1.70;1.37;;;;;;;;;;4908986;29;20709;-75
2022/07/01 03:18:21;;;;;;;2.23;1.67;;;;;;;;;;4907447;29;20211;-76
2022/07/01 03:20:49;;;;;;;2.10;1.40;;;;;;;;;;4903307;29;20626;-75
2022/07/01 03:23:17;;;;;;;2.40;1.60;;;;;;;;;;4906190;29;20226;-74
2022/07/01 03:25:44;;;;;;;2.50;1.60;;;;;;;;;;4906296;29;20223;-76
2022/07/01 03:28:12;;;;;;;2.40;1.77;;;;;;;;;;4908188;29;20518;-76
2022/07/01 03:30:39;;;;;;;3.43;1.80;;;;;;;;;;4904969;29;20254;-75
2022/07/01 03:33:06;;;;;;;2.73;1.80;;;;;;;;;;4904067;29;20212;-76
2022/07/01 03:35:38;;;;;;;2.57;1.70;;;;;;;;;;4906545;29;20234;-75
2022/07/01 03:38:06;;;;;;;6.47;2.00;;;;;;;;;;4904038;29;20211;-75
2022/07/01 03:40:34;;;;;;;6.20;1.93;;;;;;;;;;4907443;29;20931;-75
2022/07/01 03:43:02;;;;;;;5.20;2.10;;;;;;;;;;4903147;29;20290;-75
2022/07/01 03:45:29;;;;;;;3.47;2.03;;;;;;;;;;4903892;29;20224;-75
2022/07/01 03:47:56;;;;;;;4.57;2.00;;;;;;;;;;4904124;29;20200;-75
2022/07/01 03:50:24;;;;;;;3.40;1.90;;;;;;;;;;4909507;29;20243;-75
2022/07/01 03:54:29;;;;;;;4.83;2.20;;;;;;;;;;4908163;29;20657;-77
2022/07/01 03:55:39;;;;;;;8.57;2.20;;;;;;;;;;4905002;29;20618;-79
2022/07/01 03:58:06;;;;;;;3.67;2.50;;;;;;;;;;4907659;29;20704;-75
2022/07/01 04:00:34;;;;;;;3.97;2.57;;;;;;;;;;4904598;29;20228;-75
2022/07/01 04:03:01;;;;;;;3.43;2.23;;;;;;;;;;4904739;29;20199;-75
2022/07/01 04:05:29;;;;;;;5.00;2.57;;;;;;;;;;4906229;29;20607;-75
2022/07/01 04:07:56;;;;;;;5.47;2.50;;;;;;;;;;4904018;29;20210;-76
2022/07/01 04:10:23;;;;;;;6.20;2.80;;;;;;;;;;4905362;29;20702;-77
2022/07/01 04:12:52;;;;;;;5.07;3.03;;;;;;;;;;4909241;29;20300;-75
2022/07/01 04:15:19;;;;;;;4.57;3.30;;;;;;;;;;4901995;29;20238;-76
2022/07/01 04:17:46;;;;;;;5.37;3.53;;;;;;;;;;4907854;29;20221;-76
2022/07/01 04:20:13;;;;;;;5.57;3.33;;;;;;;;;;4905239;29;20249;-74
2022/07/01 04:22:39;;;;;;;4.73;3.30;;;;;;;;;;4910901;29;20303;-75
2022/07/01 04:25:07;;;;;;;6.67;3.20;;;;;;;;;;4902984;29;20218;-75
2022/07/01 04:27:34;;;;;;;7.33;3.60;;;;;;;;;;4905590;29;20212;-75
2022/07/01 04:30:03;;;;;;;6.50;2.90;;;;;;;;;;4905307;29;20216;-75
2022/07/01 04:32:31;;;;;;;4.87;2.83;;;;;;;;;;4909626;29;20303;-75
2022/07/01 04:34:58;;;;;;;5.33;2.70;;;;;;;;;;4905667;29;20223;-76
2022/07/01 04:37:25;;;;;;;4.60;2.40;;;;;;;;;;4903449;29;20208;-76
2022/07/01 04:39:52;;;;;;;5.27;2.67;;;;;;;;;;4907169;29;20318;-76
2022/07/01 04:42:21;;;;;;;3.00;1.93;;;;;;;;;;4904116;29;20208;-75
2022/07/01 04:44:49;;;;;;;4.30;2.47;;;;;;;;;;4908976;29;20234;-76
2022/07/01 04:47:17;;;;;;;5.37;2.27;;;;;;;;;;4905485;29;20690;-75
2022/07/01 04:49:44;;;;;;;3.90;2.20;;;;;;;;;;4904745;29;20226;-77
2022/07/01 04:52:12;;;;;;;3.33;2.33;;;;;;;;;;4905405;29;20227;-75
2022/07/01 04:54:39;;;;;;;4.33;2.50;;;;;;;;;;4905966;29;20319;-75
2022/07/01 04:57:06;;;;;;;4.00;2.20;;;;;;;;;;4904543;29;20227;-76
2022/07/01 04:59:33;;;;;;;5.73;1.90;;;;;;;;;;4911257;29;20208;-76
2022/07/01 05:02:01;;;;;;;4.10;1.87;;;;;;;;;;4906977;29;20304;-75
2022/07/01 05:04:29;;;;;;;4.73;1.70;;;;;;;;;;4906397;29;20235;-74
2022/07/01 05:06:56;;;;;;;4.13;1.80;;;;;;;;;;4903185;29;20661;-74
2022/07/01 05:09:24;;;;;;;5.50;1.80;;;;;;;;;;4901733;29;20208;-75
2022/07/01 05:11:51;;;;;;;4.33;1.70;;;;;;;;;;4902898;29;20235;-75
2022/07/01 05:14:18;;;;;;;4.13;1.73;;;;;;;;;;4904503;29;20227;-75
2022/07/01 05:16:45;;;;;;;3.83;1.87;;;;;;;;;;4906255;29;20732;-75
2022/07/01 05:22:01;;;;;;;2.77;1.50;;;;;;;;;;4907322;29;20327;-75
2022/07/01 05:24:30;;;;;;;3.33;1.70;;;;;;;;;;4906119;29;20379;-75
2022/07/01 05:26:57;;;;;;;2.93;1.60;;;;;;;;;;4907669;29;20259;-76
2022/07/01 05:29:24;;;;;;;5.27;1.33;;;;;;;;;;4911044;29;20216;-76
2022/07/01 05:31:51;;;;;;;1.90;1.10;;;;;;;;;;4911480;29;20320;-75
2022/07/01 05:34:19;;;;;;;2.57;1.47;;;;;;;;;;4905066;29;20232;-75
2022/07/01 05:36:46;;;;;;;5.10;1.40;;;;;;;;;;4911990;29;20330;-76
2022/07/01 05:39:14;;;;;;;2.60;1.53;;;;;;;;;;4911890;29;20212;-75
2022/07/01 05:41:41;;;;;;;2.70;1.40;;;;;;;;;;4909235;29;20207;-75
2022/07/01 05:44:09;;;;;;;5.53;1.60;;;;;;;;;;4907426;29;20242;-75
2022/07/01 05:46:36;;;;;;;2.30;1.23;;;;;;;;;;4903981;29;20207;-75
2022/07/01 05:49:03;;;;;;;3.17;1.10;;;;;;;;;;4908624;29;20600;-74
2022/07/01 05:51:30;;;;;;;3.40;1.20;;;;;;;;;;4913474;29;20206;-75
2022/07/01 05:53:57;;;;;;;2.73;1.43;;;;;;;;;;4909049;29;20326;-75
2022/07/01 05:56:26;;;;;;;3.90;1.43;;;;;;;;;;4907697;29;20231;-76
2022/07/01 05:58:54;;;;;;;4.00;1.27;;;;;;;;;;4905571;29;20208;-76
2022/07/01 06:01:21;;;;;;;2.80;1.30;;;;;;;;;;4907429;29;20218;-76
2022/07/01 06:03:48;;;;;;;2.63;1.20;;;;;;;;;;4910541;29;20302;-76
2022/07/01 06:06:18;;;;;;;2.50;1.00;;;;;;;;;;4903581;29;20209;-76
2022/07/01 06:08:45;;;;;;;1.73;1.13;;;;;;;;;;4913035;29;20208;-76
2022/07/01 06:11:12;;;;;;;3.77;1.47;;;;;;;;;;4907874;29;20671;-75
2022/07/01 06:13:40;;;;;;;4.93;1.33;;;;;;;;;;4906255;29;20697;-76
2022/07/01 06:16:08;;;;;;;1.83;1.10;;;;;;;;;;4912966;29;20776;-76
2022/07/01 06:18:35;;;;;;;1.83;1.10;;;;;;;;;;4915144;29;20235;-75
2022/07/01 06:21:02;;;;;;;3.17;1.60;;;;;;;;;;4911346;29;20211;-76
2022/07/01 06:23:29;;;;;;;3.67;1.17;;;;;;;;;;4904906;29;20330;-75
2022/07/01 06:25:56;;;;;;;1.40;0.83;;;;;;;;;;4910512;29;20624;-76
2022/07/01 06:28:29;;;;;;;1.60;1.00;;;;;;;;;;4904622;29;20651;-76
2022/07/01 06:30:58;;;;;;;2.27;1.13;;;;;;;;;;4910330;29;20279;-75
2022/07/01 06:33:25;;;;;;;3.90;1.10;;;;;;;;;;4902315;29;20228;-75
2022/07/01 06:35:52;;;;;;;2.37;1.23;;;;;;;;;;4909786;29;20318;-76
2022/07/01 06:38:19;;;;;;;1.90;1.10;;;;;;;;;;4906271;29;20298;-76
2022/07/01 06:41:26;;;;;;;4.60;1.30;;;;;;;;;;4906667;29;20594;-76
2022/07/01 06:43:35;;;;;;;3.07;1.00;;;;;;;;;;4906422;29;20310;-76
2022/07/01 06:46:04;;;;;;;4.77;1.27;;;;;;;;;;4908021;29;20295;-76
2022/07/01 06:48:31;;;;;;;3.47;1.00;;;;;;;;;;4904779;29;20299;-77
2022/07/01 06:50:58;;;;;;;2.57;0.90;;;;;;;;;;4904546;29;21044;-76
2022/07/01 06:53:25;;;;;;;2.20;1.07;;;;;;;;;;4909488;29;20212;-75
2022/07/01 06:55:53;;;;;;;2.57;1.17;;;;;;;;;;4909629;29;20232;-75
2022/07/01 06:58:20;;;;;;;1.63;1.00;;;;;;;;;;4906756;29;20204;-75
2022/07/01 07:00:47;;;;;;;1.67;1.10;;;;;;;;;;4910315;29;20203;-76
2022/07/01 07:03:15;;;;;;;2.00;1.00;;;;;;;;;;4907318;29;20204;-77
2022/07/01 07:05:43;;;;;;;1.73;1.20;;;;;;;;;;4907393;29;20342;-76
2022/07/01 07:08:10;;;;;;;6.33;1.20;;;;;;;;;;4907997;29;20200;-76
2022/07/01 07:10:37;;;;;;;3.70;1.20;;;;;;;;;;4908951;29;20290;-75
2022/07/01 07:13:04;;;;;;;2.23;1.13;;;;;;;;;;4907439;29;20298;-76
2022/07/01 07:15:32;;;;;;;4.87;1.30;;;;;;;;;;4909027;29;20864;-76
2022/07/01 07:17:59;;;;;;;3.57;1.40;;;;;;;;;;4907128;29;20579;-76
2022/07/01 07:20:27;;;;;;;2.23;1.17;;;;;;;;;;4904576;29;20214;-75
2022/07/01 07:22:55;;;;;;;3.97;1.13;;;;;;;;;;4908039;29;20204;-75
2022/07/01 07:25:22;;;;;;;2.43;1.50;;;;;;;;;;4905067;29;20230;-75
2022/07/01 07:27:49;;;;;;;3.57;1.30;;;;;;;;;;4904436;29;20299;-75
2022/07/01 07:30:16;;;;;;;5.13;1.50;;;;;;;;;;4907347;29;20346;-75
2022/07/01 07:32:44;;;;;;;2.90;1.40;;;;;;;;;;4907527;29;20212;-75
2022/07/01 07:35:11;;;;;;;2.40;1.40;;;;;;;;;;4905726;29;20224;-75
2022/07/01 07:37:40;;;;;;;2.33;1.20;;;;;;;;;;4904644;29;20227;-75
2022/07/01 07:40:09;;;;;;;4.43;1.37;;;;;;;;;;4903922;29;20695;-76
2022/07/01 07:42:37;;;;;;;2.63;1.60;;;;;;;;;;4904493;29;20223;-75
2022/07/01 07:45:06;;;;;;;5.40;1.73;;;;;;;;;;4904997;29;20597;-74
2022/07/01 07:47:33;;;;;;;5.17;1.50;;;;;;;;;;4904746;29;20212;-76
2022/07/01 07:50:00;;;;;;;2.90;1.60;;;;;;;;;;4907855;29;20214;-75
2022/07/01 07:52:27;;;;;;;2.50;1.70;;;;;;;;;;4904712;29;20231;-75
2022/07/01 07:54:56;;;;;;;2.43;1.60;;;;;;;;;;4906044;29;20236;-74
2022/07/01 07:57:23;;;;;;;6.60;1.97;;;;;;;;;;4905765;29;20703;-76
2022/07/01 07:59:50;;;;;;;5.17;2.37;;;;;;;;;;4907177;29;20212;-75
2022/07/01 08:02:17;;;;;;;6.63;2.00;;;;;;;;;;4909084;29;20215;-75
2022/07/01 08:04:44;;;;;;;3.17;1.73;;;;;;;;;;4904749;29;20760;-75
2022/07/01 08:07:12;;;;;;;7.13;2.20;;;;;;;;;;4906593;29;20700;-75
2022/07/01 08:09:39;;;;;;;6.00;1.70;;;;;;;;;;4905468;29;20210;-75
2022/07/01 08:12:10;;;;;;;3.10;1.53;;;;;;;;;;4908234;29;20203;-75
2022/07/01 08:14:37;;;;;;;4.40;1.60;;;;;;;;;;4904701;29;20267;-75
2022/07/01 08:17:05;;;;;;;2.57;1.50;;;;;;;;;;4908429;29;20249;-75
2022/07/01 08:19:32;;;;;;;3.53;1.60;;;;;;;;;;4903778;29;20234;-75
2022/07/01 08:21:59;;;;;;;2.70;1.60;;;;;;;;;;4907058;29;20212;-75
2022/07/01 08:24:26;;;;;;;4.70;1.47;;;;;;;;;;4904273;29;20322;-75
2022/07/01 08:26:53;;;;;;;3.37;1.50;;;;;;;;;;4903795;29;20324;-75
2022/07/01 08:29:22;;;;;;;3.03;1.50;;;;;;;;;;4905884;29;20214;-75
2022/07/01 08:31:49;;;;;;;4.27;1.53;;;;;;;;;;4906736;29;20302;-75
2022/07/01 08:34:16;;;;;;;3.30;1.83;;;;;;;;;;4905875;29;20231;-75
2022/07/01 08:36:43;;;;;;;4.57;1.60;;;;;;;;;;4902671;29;20315;-74
2022/07/01 08:39:10;;;;;;;5.67;1.60;;;;;;;;;;4904028;29;20213;-75
2022/07/01 08:41:38;;;;;;;2.43;1.40;;;;;;;;;;4905619;29;20234;-75
2022/07/01 08:44:05;;;;;;;5.27;1.63;;;;;;;;;;4907414;29;20230;-75
2022/07/01 08:46:34;;;;;;;4.73;1.60;;;;;;;;;;4905288;29;20283;-76
2022/07/01 08:49:02;;;;;;;4.63;1.70;;;;;;;;;;4909181;29;20211;-76
2022/07/01 08:51:29;;;;;;;3.80;1.73;;;;;;;;;;4904308;29;20215;-76
2022/07/01 08:53:56;;;;;;;4.97;1.30;;;;;;;;;;4903328;29;20242;-75
2022/07/01 08:56:41;;;;;;;3.07;1.63;;;;;;;;;;4905049;29;20242;-75
2022/07/01 08:59:10;;;;;;;5.90;1.50;;;;;;;;;;4906130;29;20673;-75
2022/07/01 09:01:39;;;;;;;4.87;1.73;;;;;;;;;;4903506;29;20212;-75
2022/07/01 09:04:16;;;;;;;3.67;1.70;;;;;;;;;;4910768;29;20242;-75
2022/07/01 09:06:43;;;;;;;2.77;1.40;;;;;;;;;;4907545;29;20207;-74
2022/07/01 09:09:14;;;;;;;4.47;1.43;;;;;;;;;;4906196;29;20235;-75
2022/07/01 09:11:45;;;;;;;4.93;1.63;;;;;;;;;;4910634;29;20230;-76
2022/07/01 09:14:13;;;;;;;5.27;1.40;;;;;;;;;;4905462;29;20224;-75
2022/07/01 09:16:42;;;;;;;1.90;1.20;;;;;;;;;;4909567;29;20235;-75
2022/07/01 09:19:09;;;;;;;2.93;1.10;;;;;;;;;;4906253;29;20212;-75
2022/07/01 09:21:37;;;;;;;4.53;1.10;;;;;;;;;;4907648;29;20338;-76
2022/07/01 09:24:05;;;;;;;4.40;1.53;;;;;;;;;;4909501;29;20230;-75
2022/07/01 09:26:33;;;;;;;3.20;1.30;;;;;;;;;;4906866;29;20316;-74
2022/07/01 09:29:00;;;;;;;4.00;1.00;;;;;;;;;;4909787;29;20237;-75
2022/07/01 09:31:34;;;;;;;5.70;1.20;;;;;;;;;;4906905;29;20235;-75
2022/07/01 09:34:08;;;;;;;8.70;1.30;;;;;;;;;;4907385;29;20244;-75
2022/07/01 09:36:40;;;;;;;2.23;0.80;;;;;;;;;;4909753;29;20298;-75
2022/07/01 09:39:07;;;;;;;3.00;1.00;;;;;;;;;;4910323;29;20204;-75
2022/07/01 09:41:38;;;;;;;3.33;1.20;;;;;;;;;;4907336;29;20207;-75
2022/07/01 09:44:05;;;;;;;6.50;1.27;;;;;;;;;;4908889;29;20804;-75
2022/07/01 09:46:32;;;;;;;2.87;1.00;;;;;;;;;;4904045;29;20715;-75
2022/07/01 09:49:00;;;;;;;2.60;1.20;;;;;;;;;;4909081;29;20295;-75
2022/07/01 09:51:29;;;;;;;3.30;1.40;;;;;;;;;;4907705;29;20208;-75
2022/07/01 09:53:56;;;;;;;3.23;1.00;;;;;;;;;;4908731;29;20329;-76
2022/07/01 09:56:24;;;;;;;2.60;1.10;;;;;;;;;;4911885;29;20829;-75
2022/07/01 09:58:51;;;;;;;3.83;1.20;;;;;;;;;;4910649;29;20303;-75
2022/07/01 10:01:18;;;;;;;3.90;1.00;;;;;;;;;;4907998;29;20207;-75
2022/07/01 10:03:46;;;;;;;3.77;1.10;;;;;;;;;;4908345;29;20204;-75
2022/07/01 10:06:26;;;;;;;5.30;1.07;;;;;;;;;;4910084;29;20822;-75
2022/07/01 10:09:01;;;;;;;3.17;1.13;;;;;;;;;;4906581;29;20235;-75
2022/07/01 10:11:44;;;;;;;4.63;1.40;;;;;;;;;;4907853;29;20203;-74
2022/07/01 10:14:13;;;;;;;4.13;1.20;;;;;;;;;;4905830;29;20329;-75
2022/07/01 10:16:40;;;;;;;3.03;1.13;;;;;;;;;;4906262;29;20207;-76
2022/07/01 10:19:25;;;;;;;1.83;0.90;;;;;;;;;;4910164;29;20298;-76
2022/07/01 10:21:56;;;;;;;3.40;1.33;;;;;;;;;;4908908;29;20215;-73
2022/07/01 10:24:26;;;;;;;2.93;1.33;;;;;;;;;;4905477;29;20233;-76
2022/07/01 10:26:53;;;;;;;3.93;1.00;;;;;;;;;;4909115;29;20302;-74
2022/07/01 10:29:30;;;;;;;5.23;1.10;;;;;;;;;;4913751;29;20212;-76
2022/07/01 10:32:01;;;;;;;2.30;1.20;;;;;;;;;;4909330;29;20510;-74
2022/07/01 10:34:35;;;;;;;2.00;0.80;;;;;;;;;;4909026;29;20509;-74
2022/07/01 10:37:03;;;;;;;2.67;0.90;;;;;;;;;;4906526;29;20222;-75
2022/07/01 10:39:31;;;;;;;4.20;1.00;;;;;;;;;;4908174;29;20210;-76
2022/07/01 10:42:00;;;;;;;2.93;1.00;;;;;;;;;;4906238;29;20200;-76
2022/07/01 10:44:28;;;;;;;2.10;1.00;;;;;;;;;;4909062;29;20232;-74
2022/07/01 10:46:58;;;;;;;2.87;1.00;;;;;;;;;;4908527;29;20643;-76
2022/07/01 10:49:44;;;;;;;4.40;0.80;;;;;;;;;;4901978;29;20639;-74
2022/07/01 10:52:12;;;;;;;1.83;0.97;;;;;;;;;;4909473;29;20204;-76
2022/07/01 10:54:53;;;;;;;3.80;1.20;;;;;;;;;;4907725;29;20285;-76
2022/07/01 10:57:22;;;;;;;2.47;0.87;;;;;;;;;;4904662;29;20218;-74
2022/07/01 10:59:50;;;;;;;3.47;0.83;;;;;;;;;;4906819;29;20215;-76
2022/07/01 11:02:19;;;;;;;3.83;1.33;;;;;;;;;;4907415;29;20436;-76
2022/07/01 11:04:46;;;;;;;5.57;0.93;;;;;;;;;;4904449;29;20359;-75
2022/07/01 11:07:13;;;;;;;1.57;0.90;;;;;;;;;;4906521;29;20200;-76
2022/07/01 11:09:40;;;;;;;3.17;0.90;;;;;;;;;;4905247;29;20294;-75
2022/07/01 11:12:09;;;;;;;3.23;0.80;;;;;;;;;;4906691;29;20204;-74
2022/07/01 11:14:37;;;;;;;2.00;0.77;;;;;;;;;;4907616;29;20733;-75
2022/07/01 11:17:05;;;;;;;1.97;0.80;;;;;;;;;;4907317;29;20234;-74
2022/07/01 11:19:32;;;;;;;2.70;0.67;;;;;;;;;;4908744;29;20212;-75
2022/07/01 11:21:59;;;;;;;6.20;1.00;;;;;;;;;;4904388;29;20302;-75
2022/07/01 11:24:26;;;;;;;4.97;0.90;;;;;;;;;;4901655;29;21641;-74
2022/07/01 11:26:56;;;;;;;1.97;0.90;;;;;;;;;;4909703;29;20294;-75
2022/07/01 11:29:27;;;;;;;1.13;0.70;;;;;;;;;;4911588;29;20204;-75
2022/07/01 11:31:55;;;;;;;4.67;0.80;;;;;;;;;;4909087;29;20746;-75
2022/07/01 11:34:22;;;;;;;2.00;0.77;;;;;;;;;;4907324;29;20228;-77
2022/07/01 11:39:35;;;;;;;2.30;1.03;;;;;;;;;;4908675;29;20332;-76
2022/07/01 11:42:06;;;;;;;4.43;0.80;;;;;;;;;;4907853;29;20239;-77
2022/07/01 11:44:36;;;;;;;2.40;1.10;;;;;;;;;;4904882;29;20235;-73
2022/07/01 11:47:04;;;;;;;2.00;1.20;;;;;;;;;;4903510;29;20199;-74
2022/07/01 11:49:31;;;;;;;2.17;1.00;;;;;;;;;;4904578;29;20592;-74
2022/07/01 11:51:59;;;;;;;2.13;1.20;;;;;;;;;;4911289;29;20310;-75
2022/07/01 11:54:26;;;;;;;3.17;0.93;;;;;;;;;;4909010;29;20265;-74
2022/07/01 11:57:31;;;;;;;3.97;1.10;;;;;;;;;;4905335;29;20208;-75
2022/07/01 12:00:09;;;;;;;1.70;0.70;;;;;;;;;;4900011;29;20302;-73
2022/07/01 12:02:36;;;;;;;2.00;0.90;;;;;;;;;;4902043;29;20740;-73
2022/07/01 12:05:03;;;;;;;5.00;0.90;;;;;;;;;;4905153;29;20759;-75
2022/07/01 12:07:31;;;;;;;4.63;0.80;;;;;;;;;;4908271;29;20285;-74
2022/07/01 12:09:58;;;;;;;1.67;0.90;;;;;;;;;;4910131;29;20215;-75
2022/07/01 12:12:27;;;;;;;3.13;0.73;;;;;;;;;;4911242;29;20342;-74
2022/07/01 12:14:55;;;;;;;1.70;0.73;;;;;;;;;;4907157;29;20318;-76
2022/07/01 12:17:24;;;;;;;2.10;0.97;;;;;;;;;;4907155;29;20234;-75
2022/07/01 12:19:51;;;;;;;1.77;0.60;;;;;;;;;;4904986;29;20211;-75
2022/07/01 12:22:19;;;;;;;1.83;0.80;;;;;;;;;;4907120;29;20212;-74
2022/07/01 12:24:47;;;;;;;4.57;0.70;;;;;;;;;;4912899;29;20238;-74
2022/07/01 12:27:14;;;;;;;1.13;0.60;;;;;;;;;;4911492;29;20686;-74
2022/07/01 12:29:52;;;;;;;3.30;0.93;;;;;;;;;;4909772;29;20207;-74
2022/07/01 12:32:22;;;;;;;2.10;0.50;;;;;;;;;;4907879;29;20212;-74
2022/07/01 12:34:52;;;;;;;0.67;0.60;;;;;;;;;;4913962;29;20240;-75
2022/07/01 12:37:20;;;;;;;1.57;0.83;;;;;;;;;;4912398;29;20239;-75
2022/07/01 12:39:48;;;;;;;2.50;0.57;;;;;;;;;;4909129;29;20208;-74
2022/07/01 12:42:21;;;;;;;1.43;0.47;;;;;;;;;;4912849;29;20718;-74
2022/07/01 12:44:49;;;;;;;1.57;0.77;;;;;;;;;;4914580;29;20330;-74
2022/07/01 12:47:19;;;;;;;3.97;0.60;;;;;;;;;;4910240;29;20678;-74
2022/07/01 12:49:46;;;;;;;1.53;0.30;;;;;;;;;;4909075;29;20302;-75
2022/07/01 12:52:26;;;;;;;2.13;0.50;;;;;;;;;;4911406;29;20213;-74
2022/07/01 12:54:53;;;;;;;0.23;0.20;;;;;;;;;;4908157;29;20354;-74
2022/07/01 12:57:30;;;;;;;0.67;0.40;;;;;;;;;;4910069;29;20299;-74
2022/07/01 12:59:57;;;;;;;1.33;0.50;;;;;;;;;;4906700;29;20211;-73
2022/07/01 13:02:24;;;;;;;1.30;0.40;;;;;;;;;;4907677;29;21043;-74
2022/07/01 13:04:51;;;;;;;3.50;0.50;;;;;;;;;;4907484;29;20673;-73
2022/07/01 13:07:19;;;;;;;2.63;0.63;;;;;;;;;;4909340;29;20204;-73
2022/07/01 13:09:47;;;;;;;4.93;0.60;;;;;;;;;;4909306;29;20299;-74
2022/07/01 13:12:14;;;;;;;1.73;0.50;;;;;;;;;;4909925;29;20681;-74
2022/07/01 13:14:41;;;;;;;1.83;0.50;;;;;;;;;;4906427;29;20274;-73
2022/07/01 13:17:09;;;;;;;0.70;0.50;;;;;;;;;;4909237;29;20207;-73
2022/07/01 13:19:36;;;;;;;1.17;0.40;;;;;;;;;;4910027;29;20223;-74
2022/07/01 13:22:05;;;;;;;1.10;0.60;;;;;;;;;;4903218;29;20203;-74
2022/07/01 13:24:32;;;;;;;2.20;0.63;;;;;;;;;;4907580;29;20227;-74
2022/07/01 13:27:01;;;;;;;0.53;0.53;;;;;;;;;;4907210;29;20302;-73
2022/07/01 13:29:28;;;;;;;4.67;0.70;;;;;;;;;;4906377;29;20206;-75
2022/07/01 13:31:55;;;;;;;1.20;0.47;;;;;;;;;;4909635;29;20746;-74
2022/07/01 13:34:22;;;;;;;4.27;0.60;;;;;;;;;;4910500;29;20632;-73
2022/07/01 13:36:51;;;;;;;5.80;0.90;;;;;;;;;;4909999;29;20207;-78
2022/07/01 13:39:19;;;;;;;1.60;0.50;;;;;;;;;;4907238;29;20224;-74
2022/07/01 13:41:46;;;;;;;2.47;0.50;;;;;;;;;;4904340;29;20294;-74
2022/07/01 13:44:15;;;;;;;1.23;0.50;;;;;;;;;;4911712;29;20240;-75
2022/07/01 13:46:42;;;;;;;2.53;0.47;;;;;;;;;;4912303;29;20241;-74
2022/07/01 13:49:09;;;;;;;1.70;0.50;;;;;;;;;;4907378;29;20204;-73
2022/07/01 13:51:36;;;;;;;3.27;0.50;;;;;;;;;;4902961;29;20739;-73
2022/07/01 13:54:06;;;;;;;2.33;0.60;;;;;;;;;;4865924;29;1123944;-74
2022/07/01 13:56:33;;;;;;;2.00;0.63;;;;;;;;;;4902624;29;20683;-73
2022/07/01 13:59:01;;;;;;;2.23;0.40;;;;;;;;;;4907498;29;20227;-74
2022/07/01 14:01:31;;;;;;;1.03;0.43;;;;;;;;;;4911513;29;20670;-75
2022/07/01 14:03:58;;;;;;;1.90;0.60;;;;;;;;;;4907523;29;20227;-74
2022/07/01 14:06:25;;;;;;;5.93;0.57;;;;;;;;;;4905154;29;20568;-75
2022/07/01 14:08:52;;;;;;;1.87;0.63;;;;;;;;;;4908464;29;20219;-73
2022/07/01 14:11:19;;;;;;;5.70;0.50;;;;;;;;;;4906211;29;20308;-74
2022/07/01 14:13:47;;;;;;;1.07;0.50;;;;;;;;;;4911150;29;20698;-73
2022/07/01 14:16:14;;;;;;;5.50;0.70;;;;;;;;;;4912155;29;20230;-74
2022/07/01 14:18:42;;;;;;;1.10;0.30;;;;;;;;;;4907027;29;20224;-75
2022/07/01 14:21:10;;;;;;;0.80;0.40;;;;;;;;;;4910665;29;20593;-73
2022/07/01 14:23:37;;;;;;;2.43;0.47;;;;;;;;;;4909316;29;20342;-74
2022/07/01 14:26:04;;;;;;;2.90;0.40;;;;;;;;;;4912167;29;20208;-74
2022/07/01 14:28:31;;;;;;;2.10;0.50;;;;;;;;;;4909603;29;20244;-74
2022/07/01 14:30:58;;;;;;;1.33;0.50;;;;;;;;;;4909413;29;20208;-78
2022/07/01 14:33:26;;;;;;;1.20;0.47;;;;;;;;;;4913516;29;20208;-73
2022/07/01 14:35:54;;;;;;;1.97;0.50;;;;;;;;;;4910557;29;20234;-76
2022/07/01 14:38:21;;;;;;;0.83;0.30;;;;;;;;;;4906051;29;20227;-75
2022/07/01 14:40:49;;;;;;;1.50;0.60;;;;;;;;;;4906021;29;20207;-79
2022/07/01 14:43:19;;;;;;;1.23;0.50;;;;;;;;;;4909658;29;20409;-76
2022/07/01 14:45:47;;;;;;;2.43;0.50;;;;;;;;;;4911449;29;20258;-74
2022/07/01 14:48:14;;;;;;;1.77;0.40;;;;;;;;;;4916129;23;20290;-75
2022/07/01 14:50:42;;;;;;;0.70;0.30;;;;;;;;;;4909591;29;20210;-75
2022/07/01 14:53:11;;;;;;;0.50;0.37;;;;;;;;;;4909237;29;20527;-74
2022/07/01 14:55:38;;;;;;;1.00;0.40;;;;;;;;;;4895755;29;20729;-74